Latest Weather Observations for Mount Hotham

IDV60801

Issued at 7:33 pm EST Thursday 17 August 2017 (issued every 30 minutes, with the page automatically refreshed every 10 minutes)

About weather observations | Map of weather stations | Latest weather observations for VIC | Other Formats
Station Details ID: 083085 Name: MOUNT HOTHAM Lat: -36.98 Lon: 147.13 Height: 1849.0 m
Data from the previous 72 hours. | See also: Recent months at Mount Hotham
Date/Time
EST
Temp
°C
App
Temp
°C
Dew
Point
°C
Rel
Hum
%
Delta-T
°C
Wind Press
QNH
hPa
Press
MSL
hPa
Rain since
9am
mm
Dir  Spd
km/h
Gust
km/h
Spd
kts
Gust
kts
17/07:30pm -2.8 - - - - NW 19 26 10 14 - - -
17/07:00pm -2.9 - - - - NW 20 26 11 14 - - -
17/06:30pm -3.1 - - - - NW 20 24 11 13 - - -
17/06:00pm -3.0 - - - - NW 19 24 10 13 - - -
17/05:30pm -3.1 - - - - NW 19 24 10 13 - - -
17/05:00pm -3.4 - - - - NW 20 24 11 13 - - -
17/04:30pm -2.6 - - - - NW 19 26 10 14 - - -
17/04:00pm -2.0 - - - - NW 19 24 10 13 - - -
17/03:30pm -1.7 - - - - NW 19 24 10 13 - - -
17/03:00pm -1.7 - - - - NW 22 28 12 15 - - -
17/02:30pm -1.8 - - - - NW 24 28 13 15 - - -
17/02:00pm -2.0 - - - - NW 28 33 15 18 - - -
17/01:30pm -1.8 - - - - NW 28 33 15 18 - - -
17/01:00pm -1.9 - - - - NW 26 33 14 18 - - -
17/12:30pm -1.5 - - - - NW 24 32 13 17 - - -
17/12:00pm -1.7 - - - - NW 28 33 15 18 - - -
17/11:30am -1.7 - - - - NW 24 32 13 17 - - -
17/11:00am -1.6 - - - - NW 24 28 13 15 - - -
17/10:30am -1.7 - - - - NW 24 32 13 17 - - -
17/10:00am -2.1 - - - - NW 24 33 13 18 - - -
17/09:30am -1.2 - - - - NW 22 30 12 16 - - -
17/09:00am -1.0 - - - - NW 22 28 12 15 - - -
17/08:30am -1.1 - - - - NW 22 28 12 15 - - -
17/08:00am -1.3 - - - - NW 24 30 13 16 - - -
17/07:30am -1.6 - - - - NW 24 28 13 15 - - -
17/07:00am -1.5 - - - - NW 24 30 13 16 - - -
17/06:30am -1.5 - - - - NW 26 32 14 17 - - -
17/06:00am -1.5 - - - - NW 22 28 12 15 - - -
17/05:30am -1.3 - - - - NW 26 33 14 18 - - -
17/05:00am -1.4 - - - - NW 24 28 13 15 - - -
17/04:30am -1.4 - - - - NW 22 28 12 15 - - -
17/04:00am -1.1 - - - - NW 30 37 16 20 - - -
17/03:30am -1.1 - - - - NW 30 39 16 21 - - -
17/03:00am -1.1 - - - - NW 33 43 18 23 - - -
17/02:30am -1.1 - - - - NW 30 39 16 21 - - -
17/02:00am -1.2 - - - - NW 30 39 16 21 - - -
17/01:30am -1.5 - - - - NW 30 39 16 21 - - -
17/01:00am -1.7 - - - - NW 33 43 18 23 - - -
17/12:30am -1.1 - - - - NW 30 41 16 22 - - -
17/12:00am -1.3 - - - - NW 30 41 16 22 - - -
 
Date/Time
EST
Temp
°C
App
Temp
°C
Dew
Point
°C
Rel
Hum
%
Delta-T
°C
Wind Press
QNH
hPa
Press
MSL
hPa
Rain since
9am
mm
Dir  Spd
km/h
Gust
km/h
Spd
kts
Gust
kts
16/11:30pm -1.3 - - - - NW 32 43 17 23 - - -
16/11:01pm -1.2 - - - - NW 32 50 17 27 - - -
16/11:00pm -1.1 - - - - NW 33 50 18 27 - - -
16/10:30pm -1.2 - - - - NW 33 46 18 25 - - -
16/10:00pm -1.1 - - - - NW 33 52 18 28 - - -
16/09:56pm -1.1 - - - - NW 33 52 18 28 - - -
16/09:30pm -1.2 - - - - NW 30 43 16 23 - - -
16/09:00pm -1.0 - - - - NW 30 43 16 23 - - -
16/08:30pm -0.9 - - - - NW 37 54 20 29 - - -
16/08:12pm -1.1 - - - - NW 35 54 19 29 - - -
16/08:00pm -1.3 - - - - NW 33 50 18 27 - - -
16/07:35pm -1.1 - - - - NW 32 52 17 28 - - -
16/07:30pm -0.8 - - - - NW 33 50 18 27 - - -
16/07:00pm -0.6 - - - - NW 33 41 18 22 - - -
16/06:30pm -0.9 - - - - NW 35 50 19 27 - - -
16/06:00pm -1.0 - - - - NW 33 46 18 25 - - -
16/05:30pm -1.1 - - - - NW 35 48 19 26 - - -
16/05:00pm -1.1 - - - - NW 37 50 20 27 - - -
16/04:46pm -1.2 - - - - NW 37 56 20 30 - - -
16/04:30pm -1.3 - - - - NW 35 46 19 25 - - -
16/04:09pm -1.1 - - - - NW 35 54 19 29 - - -
16/04:00pm -1.2 - - - - NW 39 54 21 29 - - -
16/03:31pm -1.2 - - - - NW 37 56 20 30 - - -
16/03:30pm -1.1 - - - - NW 37 52 20 28 - - -
16/03:00pm -1.4 - - - - NW 39 57 21 31 - - -
16/02:51pm -1.3 - - - - NW 39 57 21 31 - - -
16/02:30pm -1.4 - - - - NW 41 54 22 29 - - -
16/02:05pm -1.4 - - - - NW 39 59 21 32 - - -
16/02:00pm -1.4 - - - - NW 39 56 21 30 - - -
16/01:30pm -1.7 - - - - NW 41 61 22 33 - - -
16/01:17pm -1.6 - - - - NW 30 54 16 29 - - -
16/01:00pm -1.6 - - - - NW 37 50 20 27 - - -
16/12:42pm -1.6 - - - - NW 35 57 19 31 - - -
16/12:30pm -1.4 - - - - NW 37 50 20 27 - - -
16/12:00pm -1.7 - - - - NW 37 56 20 30 - - -
16/11:32am -1.9 - - - - NW 39 57 21 31 - - -
16/11:30am -1.8 - - - - NW 41 57 22 31 - - -
16/11:08am -1.6 - - - - NW 33 56 18 30 - - -
16/11:00am -1.7 - - - - NW 32 41 17 22 - - -
16/10:39am -2.0 - - - - NW 35 54 19 29 - - -
16/10:30am -1.7 - - - - NW 35 50 19 27 - - -
16/10:05am -1.7 - - - - NW 41 59 22 32 - - -
16/10:00am -1.8 - - - - NW 39 54 21 29 - - -
16/09:49am -1.9 - - - - NW 43 61 23 33 - - -
16/09:30am -1.8 - - - - NW 48 78 26 42 - - -
16/09:27am -1.8 - - - - NW 50 78 27 42 - - -
16/09:12am -1.4 - - - - NW 56 82 30 44 - - -
16/09:11am -1.4 - - - - NW 54 82 29 44 - - -
16/09:00am -1.2 - - - - NW 46 72 25 39 - - -
16/08:30am -0.9 - - - - NW 48 74 26 40 - - -
16/08:00am -1.0 - - - - NNW 44 67 24 36 - - -
16/07:30am -1.2 - - - - NNW 48 69 26 37 - - -
16/07:00am -1.3 - - - - NNW 56 91 30 49 - - -
16/06:30am -1.4 - - - - NW 59 87 32 47 - - -
16/06:00am -0.8 - - - - NW 57 87 31 47 - - -
16/05:30am -0.8 - - - - NNW 61 89 33 48 - - -
16/05:13am -0.5 - - - - NW 59 95 32 51 - - -
16/05:07am -0.4 - - - - NW 61 95 33 51 - - -
16/05:00am 0.1 - - - - NW 57 83 31 45 - - -
16/04:43am 1.0 - - - - NW 59 91 32 49 - - -
16/04:42am 0.9 - - - - NW 59 91 32 49 - - -
16/04:30am 1.9 - - - - NNW 52 78 28 42 - - -
16/04:19am 1.7 - - - - NNW 48 80 26 43 - - -
16/04:15am 1.6 - - - - NNW 43 61 23 33 - - -
16/04:08am 1.6 - - - - NNW 50 74 27 40 - - -
16/04:00am 1.4 - - - - NW 59 83 32 45 - - -
16/03:49am 1.4 - - - - NNW 59 91 32 49 - - -
16/03:43am 1.4 - - - - NNW 52 72 28 39 - - -
16/03:41am 1.4 - - - - NW 48 69 26 37 - - -
16/03:30am 1.1 - - - - NW 46 69 25 37 - - -
16/03:22am 1.0 - - - - NW 56 78 30 42 - - -
16/03:00am 1.6 - - - - NNW 46 65 25 35 - - -
16/02:47am 1.7 - - - - NNW 56 83 30 45 - - -
16/02:46am 1.6 - - - - NNW 56 83 30 45 - - -
16/02:30am 1.5 - - - - NNW 67 122 36 66 - - -
16/02:28am 1.4 - - - - NNW 65 122 35 66 - - -
16/02:00am 2.1 - - - - NNW 59 91 32 49 - - -
16/01:30am 2.2 - - - - NNW 61 89 33 48 - - -
16/01:00am 2.5 - - - - NNW 67 102 36 55 - - -
16/12:30am 2.5 - - - - NNW 65 100 35 54 - - -
16/12:00am 2.5 - - - - NNW 63 96 34 52 - - -
 
Date/Time
EST
Temp
°C
App
Temp
°C
Dew
Point
°C
Rel
Hum
%
Delta-T
°C
Wind Press
QNH
hPa
Press
MSL
hPa
Rain since
9am
mm
Dir  Spd
km/h
Gust
km/h
Spd
kts
Gust
kts
15/11:30pm 2.7 - - - - N 61 95 33 51 - - -
15/11:00pm 2.7 - - - - N 59 87 32 47 - - -
15/10:30pm 2.8 - - - - NNW 67 91 36 49 - - -
15/10:19pm 2.7 - - - - NNW 61 95 33 51 - - -
15/10:00pm 3.0 - - - - NNW 52 76 28 41 - - -
15/09:30pm 2.9 - - - - NNW 59 83 32 45 - - -
15/09:00pm 3.1 - - - - N 56 76 30 41 - - -
15/08:37pm 3.2 - - - - N 54 74 29 40 - - -
15/08:30pm 3.1 - - - - N 54 70 29 38 - - -
15/08:00pm 3.1 - - - - N 54 74 29 40 - - -
15/07:30pm 3.0 - - - - N 50 70 27 38 - - -
15/07:18pm 3.1 - - - - N 52 72 28 39 - - -
15/07:00pm 3.1 - - - - N 48 63 26 34 - - -
15/06:33pm 3.0 - - - - N 50 69 27 37 - - -
15/06:30pm 2.9 - - - - N 46 63 25 34 - - -
15/06:06pm 3.0 - - - - N 48 67 26 36 - - -
15/06:00pm 3.1 - - - - N 44 61 24 33 - - -
15/05:32pm 2.8 - - - - NNW 50 69 27 37 - - -
15/05:30pm 2.8 - - - - N 48 61 26 33 - - -
15/05:00pm 2.8 - - - - NNW 48 74 26 40 - - -
15/04:35pm 2.9 - - - - NNW 50 78 27 42 - - -
15/04:30pm 2.9 - - - - NNW 46 63 25 34 - - -
15/04:04pm 3.0 - - - - NNW 44 74 24 40 - - -
15/04:00pm 2.9 - - - - N 43 59 23 32 - - -
15/03:37pm 2.7 - - - - NNW 44 63 24 34 - - -
15/03:30pm 2.5 - - - - N 43 59 23 32 - - -
15/03:00pm 2.7 - - - - NNW 46 57 25 31 - - -
15/02:50pm 2.8 - - - - N 44 63 24 34 - - -
15/02:30pm 2.3 - - - - N 46 57 25 31 - - -
15/02:00pm 2.9 - - - - N 43 63 23 34 - - -
15/01:53pm 2.9 - - - - N 41 63 22 34 - - -
15/01:30pm 2.5 - - - - N 41 52 22 28 - - -
15/01:14pm 2.3 - - - - N 43 61 23 33 - - -
15/01:00pm 2.5 - - - - N 46 61 25 33 - - -
15/12:30pm 2.2 - - - - N 54 65 29 35 - - -
15/12:01pm 2.1 - - - - N 56 74 30 40 - - -
15/12:00pm 2.1 - - - - N 57 74 31 40 - - -
15/11:47am 2.1 - - - - N 57 76 31 41 - - -
15/11:30am 2.4 - - - - N 65 82 35 44 - - -
15/11:00am 2.9 - - - - N 70 95 38 51 - - -
15/10:30am 2.8 - - - - N 76 98 41 53 - - -
15/10:00am 2.8 - - - - N 70 95 38 51 - - -
15/09:30am 2.9 - - - - N 69 89 37 48 - - -
15/09:00am 2.4 - - - - N 61 89 33 48 - - -
15/08:35am 2.0 - - - - N 56 82 30 44 - - -
15/08:30am 1.6 - - - - N 56 70 30 38 - - -
15/08:00am 1.5 - - - - N 59 80 32 43 - - -
15/07:33am 1.2 - - - - N 46 65 25 35 - - -
15/07:30am 0.7 - - - - N 48 65 26 35 - - -
15/07:00am 1.2 - - - - N 52 72 28 39 - - -
15/06:57am 1.3 - - - - N 52 72 28 39 - - -
15/06:30am 2.0 - - - - N 54 69 29 37 - - -
15/06:00am 2.2 - - - - N 56 74 30 40 - - -
15/05:37am 1.8 - - - - N 59 78 32 42 - - -
15/05:30am 1.7 - - - - N 57 69 31 37 - - -
15/05:00am 1.6 - - - - N 57 70 31 38 - - -
15/04:41am 1.9 - - - - N 57 76 31 41 - - -
15/04:30am 1.7 - - - - N 54 65 29 35 - - -
15/04:00am 1.8 - - - - N 48 63 26 34 - - -
15/03:30am 1.8 - - - - N 43 56 23 30 - - -
15/03:00am 1.6 - - - - N 39 50 21 27 - - -
15/02:30am 1.3 - - - - N 41 54 22 29 - - -
15/02:00am 1.9 - - - - N 41 52 22 28 - - -
15/01:30am 1.2 - - - - N 41 54 22 29 - - -
15/01:00am 1.5 - - - - N 46 59 25 32 - - -
15/12:30am 1.3 - - - - N 46 56 25 30 - - -
15/12:04am 1.3 - - - - N 41 59 22 32 - - -
15/12:00am 2.5 - - - - N 43 59 23 32 - - -
 
Date/Time
EST
Temp
°C
App
Temp
°C
Dew
Point
°C
Rel
Hum
%
Delta-T
°C
Wind Press
QNH
hPa
Press
MSL
hPa
Rain since
9am
mm
Dir  Spd
km/h
Gust
km/h
Spd
kts
Gust
kts
14/11:30pm 2.7 - - - - N 48 63 26 34 - - -
14/11:09pm 2.9 - - - - N 46 67 25 36 - - -
14/11:00pm 2.8 - - - - N 46 61 25 33 - - -
14/10:30pm 2.6 - - - - N 46 59 25 32 - - -
14/10:00pm 2.7 - - - - N 44 57 24 31 - - -
14/09:30pm 2.8 - - - - N 44 54 24 29 - - -
14/09:00pm 2.7 - - - - N 46 57 25 31 - - -
14/08:30pm 2.7 - - - - N 46 61 25 33 - - -
14/08:00pm 2.5 - - - - N 46 59 25 32 - - -

Other Formats:

Comma delimited format used in spreadsheet applications
http://www.bom.gov.au/fwo/IDV60801/IDV60801.94906.axf

JavaScript Object Notation format (JSON) in row-major order
http://www.bom.gov.au/fwo/IDV60801/IDV60801.94906.json